Time;durP1;ratioP1;P1;durP2;ratioP2;P2;SDS_P1;SDS_P2;PMS_P1;PMS_P2;Temp;Humidity;BMP_temperature;BMP_pressure;BME280_temperature;BME280_humidity;BME280_pressure;Samples;Min_cycle;Max_cycle;Signal;HPM_P1;HPM_P2
2023/10/04 03:01:57;;;;;;;10.13;2.28;;;12.90;99.90;;;;;;5337045;23;20050;-76
2023/10/04 03:04:22;;;;;;;20.23;3.72;;;12.90;99.90;;;;;;4995488;28;20453;-78
2023/10/04 03:06:51;;;;;;;8.85;2.15;;;12.90;99.90;;;;;;4995508;28;20064;-79
2023/10/04 03:09:17;;;;;;;17.90;2.67;;;12.80;99.90;;;;;;4995368;28;20057;-76
2023/10/04 03:11:43;;;;;;;12.40;2.35;;;12.80;99.90;;;;;;4995285;28;20050;-78
2023/10/04 03:14:11;;;;;;;13.60;2.58;;;12.80;99.90;;;;;;4995608;28;20350;-76
2023/10/04 03:16:40;;;;;;;11.25;2.90;;;12.80;99.90;;;;;;4995074;28;20050;-78
2023/10/04 03:19:06;;;;;;;12.88;2.65;;;12.70;99.90;;;;;;4995208;28;20106;-78
2023/10/04 03:21:33;;;;;;;15.23;2.65;;;12.70;99.90;;;;;;4995356;28;20402;-75
2023/10/04 03:23:59;;;;;;;15.63;3.33;;;12.70;99.90;;;;;;4995073;28;20489;-77
2023/10/04 03:26:24;;;;;;;13.73;3.10;;;12.70;99.90;;;;;;4978884;28;20042;-77
2023/10/04 03:28:50;;;;;;;11.70;2.70;;;12.70;99.90;;;;;;4995265;28;20126;-76
2023/10/04 03:31:18;;;;;;;9.45;2.40;;;12.70;99.90;;;;;;4978862;28;20050;-75
2023/10/04 03:33:45;;;;;;;13.82;3.38;;;12.70;99.90;;;;;;4994894;28;20042;-77
2023/10/04 03:36:15;;;;;;;18.10;2.72;;;12.70;99.90;;;;;;4995313;28;20046;-76
2023/10/04 03:38:44;;;;;;;14.32;2.45;;;12.70;99.90;;;;;;4995386;28;20120;-78
2023/10/04 03:41:11;;;;;;;11.82;2.55;;;12.70;99.90;;;;;;4995012;28;20402;-76
2023/10/04 03:43:36;;;;;;;13.07;2.53;;;12.70;99.90;;;;;;4994732;28;20046;-75
2023/10/04 03:46:17;;;;;;;11.40;2.63;;;12.70;99.90;;;;;;4994709;28;20047;-79
2023/10/04 03:48:45;;;;;;;14.50;2.88;;;12.70;99.90;;;;;;4978770;28;20113;-75
2023/10/04 03:51:11;;;;;;;11.10;2.70;;;12.70;99.90;;;;;;4996020;28;20117;-76
2023/10/04 03:53:37;;;;;;;11.00;2.33;;;12.70;99.90;;;;;;4993679;28;20054;-76
2023/10/04 03:56:04;;;;;;;18.45;3.00;;;12.70;99.90;;;;;;4994445;28;20038;-79
2023/10/04 03:58:33;;;;;;;12.00;2.97;;;12.70;99.90;;;;;;4996336;28;20118;-76
2023/10/04 04:00:58;;;;;;;9.70;2.42;;;12.70;99.90;;;;;;4994282;28;20050;-78
2023/10/04 04:03:24;;;;;;;11.70;3.35;;;12.80;99.90;;;;;;4994356;28;20398;-75
2023/10/04 04:05:53;;;;;;;13.05;2.60;;;12.80;99.90;;;;;;4994373;28;20050;-75
2023/10/04 04:08:20;;;;;;;12.68;2.30;;;12.80;99.90;;;;;;4994503;28;20441;-74
2023/10/04 04:10:46;;;;;;;16.92;2.67;;;12.80;99.90;;;;;;4994136;28;20129;-76
2023/10/04 04:13:13;;;;;;;12.63;2.72;;;12.90;99.90;;;;;;4995831;28;20038;-76
2023/10/04 04:15:39;;;;;;;14.23;2.70;;;12.90;99.90;;;;;;4994358;28;20393;-77
2023/10/04 04:18:21;;;;;;;14.85;2.97;;;12.90;99.90;;;;;;4994116;28;20054;-76
2023/10/04 04:20:50;;;;;;;12.82;2.63;;;12.90;99.90;;;;;;4994061;28;20583;-78
2023/10/04 04:23:16;;;;;;;13.13;2.78;;;12.90;99.90;;;;;;4994028;28;20048;-79
2023/10/04 04:25:43;;;;;;;14.80;3.03;;;13.00;99.90;;;;;;4994335;28;20046;-76
2023/10/04 04:28:12;;;;;;;12.32;3.95;;;13.00;99.90;;;;;;4993928;28;20046;-77
2023/10/04 04:30:37;;;;;;;14.02;2.80;;;13.10;99.90;;;;;;4993807;28;20050;-76
2023/10/04 04:33:04;;;;;;;14.18;3.17;;;13.10;99.90;;;;;;4993829;28;20041;-76
2023/10/04 04:37:57;;;;;;;13.95;3.08;;;13.10;99.90;;;;;;4993709;28;20556;-78
2023/10/04 04:40:26;;;;;;;10.82;2.65;;;13.10;99.90;;;;;;4993641;28;20046;-78
2023/10/04 04:42:52;;;;;;;11.82;2.70;;;13.10;99.90;;;;;;4993722;28;20498;-78
2023/10/04 04:45:22;;;;;;;13.65;3.00;;;13.10;99.90;;;;;;4993877;28;20150;-77
2023/10/04 04:47:49;;;;;;;11.88;2.53;;;13.00;99.90;;;;;;4993530;28;20046;-77
2023/10/04 04:50:16;;;;;;;10.98;3.08;;;13.00;99.90;;;;;;4993436;28;20054;-78
2023/10/04 04:52:42;;;;;;;13.80;3.08;;;13.00;99.90;;;;;;4993570;28;20050;-76
2023/10/04 04:55:11;;;;;;;15.48;3.03;;;13.00;99.90;;;;;;4993466;28;20057;-78
2023/10/04 04:57:37;;;;;;;14.50;3.20;;;13.00;99.90;;;;;;4993322;28;20054;-75
2023/10/04 05:00:30;;;;;;;12.43;3.05;;;13.00;99.90;;;;;;4993350;28;20049;-78
2023/10/04 05:02:49;;;;;;;11.25;2.67;;;12.90;99.90;;;;;;4993562;28;20038;-78
2023/10/04 05:05:14;;;;;;;16.67;2.83;;;12.90;99.90;;;;;;4993128;28;20046;-77
2023/10/04 05:07:40;;;;;;;12.48;3.08;;;12.90;99.90;;;;;;4993236;28;20521;-77
2023/10/04 05:10:10;;;;;;;15.38;3.33;;;12.90;99.90;;;;;;4993150;28;20046;-77
2023/10/04 05:12:37;;;;;;;17.02;3.17;;;12.90;99.90;;;;;;4993103;28;20054;-71
2023/10/04 05:15:19;;;;;;;11.68;2.90;;;12.90;99.90;;;;;;4977204;28;20494;-77
2023/10/04 05:17:44;;;;;;;12.65;2.85;;;12.90;99.90;;;;;;4993046;28;20046;-80
2023/10/04 05:20:14;;;;;;;14.10;3.88;;;12.90;99.90;;;;;;4993003;28;20134;-79
2023/10/04 05:22:42;;;;;;;15.90;3.30;;;12.90;99.90;;;;;;4993294;28;20065;-78
2023/10/04 05:25:08;;;;;;;14.77;3.75;;;12.90;99.90;;;;;;4993163;28;20128;-77
2023/10/04 05:27:36;;;;;;;13.68;3.13;;;12.90;99.90;;;;;;4993183;28;20050;-77
2023/10/04 05:30:03;;;;;;;10.50;3.47;;;12.90;99.90;;;;;;4993116;28;20050;-76
2023/10/04 05:32:29;;;;;;;13.23;3.42;;;12.90;99.90;;;;;;4992731;28;20052;-77
2023/10/04 05:34:55;;;;;;;12.38;2.70;;;12.90;99.90;;;;;;4993000;28;20132;-77
2023/10/04 05:37:21;;;;;;;12.38;3.35;;;12.90;99.90;;;;;;4992726;28;20550;-78
2023/10/04 05:39:46;;;;;;;13.52;3.03;;;12.90;99.90;;;;;;4992768;28;20097;-77
2023/10/04 05:42:12;;;;;;;19.35;3.70;;;12.90;99.90;;;;;;4992747;28;20049;-78
2023/10/04 05:44:38;;;;;;;13.80;3.08;;;12.90;99.90;;;;;;4992755;28;20125;-77
2023/10/04 05:47:05;;;;;;;18.33;3.33;;;12.90;99.90;;;;;;4994246;28;20117;-78
2023/10/04 05:49:33;;;;;;;15.38;3.25;;;12.90;99.90;;;;;;4992879;28;20125;-78
2023/10/04 05:52:00;;;;;;;17.08;3.53;;;12.90;99.90;;;;;;4992778;28;20088;-77
2023/10/04 05:54:26;;;;;;;15.40;3.55;;;12.90;99.90;;;;;;4992351;28;20054;-78
2023/10/04 05:56:51;;;;;;;17.75;4.00;;;12.90;99.90;;;;;;4993174;28;20039;-78
2023/10/04 05:59:18;;;;;;;15.13;3.30;;;12.90;99.90;;;;;;4993885;28;20077;-77
2023/10/04 06:01:44;;;;;;;18.05;4.07;;;12.90;99.90;;;;;;4993353;28;20038;-77
2023/10/04 06:04:10;;;;;;;18.13;3.60;;;13.00;99.90;;;;;;4992518;28;20045;-77
2023/10/04 06:06:36;;;;;;;15.90;4.40;;;12.90;99.90;;;;;;4992358;28;20042;-76
2023/10/04 06:09:03;;;;;;;12.38;3.22;;;13.00;99.90;;;;;;4992350;28;20050;-77
2023/10/04 06:11:29;;;;;;;18.27;3.55;;;13.00;99.90;;;;;;4992294;28;20050;-76
2023/10/04 06:13:55;;;;;;;13.75;3.40;;;13.00;99.90;;;;;;4992590;28;20042;-76
2023/10/04 06:16:21;;;;;;;18.08;3.65;;;13.00;99.90;;;;;;4993272;28;20073;-77
2023/10/04 06:18:49;;;;;;;14.18;3.60;;;13.00;99.90;;;;;;4996329;28;20058;-77
2023/10/04 06:21:18;;;;;;;14.05;4.85;;;13.00;99.90;;;;;;4996233;28;20097;-77
2023/10/04 06:23:44;;;;;;;18.17;4.07;;;13.00;99.90;;;;;;4987191;28;20043;-78
2023/10/04 06:26:09;;;;;;;22.17;4.07;;;13.10;99.90;;;;;;4986364;28;20217;-77
2023/10/04 06:28:35;;;;;;;18.60;3.90;;;13.10;99.90;;;;;;4970367;28;20042;-77
2023/10/04 06:31:05;;;;;;;22.02;4.22;;;13.20;99.90;;;;;;4985020;28;20054;-77
2023/10/04 06:33:31;;;;;;;17.35;3.97;;;13.20;99.90;;;;;;4985883;28;20042;-77
2023/10/04 06:35:57;;;;;;;17.20;4.10;;;13.20;99.90;;;;;;4986493;28;20049;-79
2023/10/04 06:38:22;;;;;;;21.63;4.82;;;13.30;99.90;;;;;;4984973;28;20047;-77
2023/10/04 06:40:48;;;;;;;23.02;4.82;;;13.30;99.90;;;;;;4982589;28;20069;-76
2023/10/04 06:43:16;;;;;;;19.15;4.45;;;13.30;99.90;;;;;;4960248;28;20047;-78
2023/10/04 06:45:42;;;;;;;18.55;4.68;;;13.40;99.90;;;;;;4976921;28;20386;-77
2023/10/04 06:48:08;;;;;;;19.17;4.80;;;13.40;99.90;;;;;;4977599;28;20034;-76
2023/10/04 06:50:36;;;;;;;17.67;4.93;;;13.40;99.90;;;;;;4976244;28;20035;-77
2023/10/04 06:53:03;;;;;;;19.88;4.50;;;13.40;99.90;;;;;;4960339;28;20047;-77
2023/10/04 06:55:32;;;;;;;19.38;4.72;;;13.40;99.90;;;;;;4982724;28;20047;-75
2023/10/04 06:57:58;;;;;;;17.67;4.53;;;13.40;99.90;;;;;;4991766;28;20053;-79
2023/10/04 07:00:29;;;;;;;19.50;4.65;;;13.30;99.90;;;;;;4995385;28;20402;-78
2023/10/04 07:03:02;;;;;;;14.68;4.13;;;13.30;99.90;;;;;;4995627;28;20035;-79
2023/10/04 07:05:32;;;;;;;15.02;4.10;;;13.30;99.90;;;;;;4995741;28;20482;-77
2023/10/04 07:07:58;;;;;;;17.67;3.67;;;13.30;99.90;;;;;;4979241;28;20046;-76
2023/10/04 07:10:25;;;;;;;17.58;4.07;;;13.40;99.90;;;;;;4995539;28;20375;-76
2023/10/04 07:12:52;;;;;;;15.38;4.03;;;13.40;99.90;;;;;;4995301;28;20085;-76
2023/10/04 07:15:19;;;;;;;23.50;4.28;;;13.40;99.90;;;;;;4995522;28;20418;-76
2023/10/04 07:17:45;;;;;;;16.17;4.13;;;13.50;99.90;;;;;;4996457;28;20070;-78
2023/10/04 07:20:15;;;;;;;17.35;3.80;;;13.40;99.90;;;;;;4995119;28;20097;-77
2023/10/04 07:22:42;;;;;;;27.55;5.25;;;13.50;99.90;;;;;;4995236;28;20092;-76
2023/10/04 07:25:08;;;;;;;16.92;3.95;;;13.50;99.90;;;;;;4995402;28;20177;-77
2023/10/04 07:27:34;;;;;;;16.45;4.45;;;13.50;99.90;;;;;;4977988;28;20047;-77
2023/10/04 07:30:01;;;;;;;19.00;4.07;;;13.60;99.90;;;;;;4994912;28;20474;-76
2023/10/04 07:32:28;;;;;;;20.13;3.72;;;13.60;99.90;;;;;;4978661;28;20489;-79
2023/10/04 07:34:54;;;;;;;12.75;3.28;;;13.60;99.90;;;;;;4996313;28;20039;-79
2023/10/04 07:37:20;;;;;;;15.60;3.95;;;13.60;99.90;;;;;;4987031;28;20045;-75
2023/10/04 07:39:46;;;;;;;16.95;4.05;;;13.60;99.90;;;;;;4994603;28;20477;-78
2023/10/04 07:42:12;;;;;;;17.35;3.90;;;13.60;99.90;;;;;;4983732;28;20039;-79
2023/10/04 07:44:38;;;;;;;15.15;3.53;;;13.70;99.90;;;;;;4988111;28;20369;-78
2023/10/04 07:47:04;;;;;;;18.50;4.00;;;13.70;99.90;;;;;;4994752;28;20048;-78
2023/10/04 07:49:31;;;;;;;17.27;3.80;;;13.70;99.90;;;;;;4995718;28;20042;-80
2023/10/04 07:51:57;;;;;;;20.23;3.97;;;13.70;99.90;;;;;;4994644;28;20050;-81
2023/10/04 07:54:23;;;;;;;13.68;3.90;;;13.70;99.90;;;;;;4994897;28;20117;-80
2023/10/04 07:56:49;;;;;;;14.63;3.88;;;13.70;99.90;;;;;;4994536;28;20038;-78
2023/10/04 07:59:17;;;;;;;14.88;3.15;;;13.80;99.90;;;;;;4978620;28;20038;-77
2023/10/04 08:01:45;;;;;;;19.10;4.55;;;13.80;99.90;;;;;;4994380;28;20073;-77
2023/10/04 08:04:13;;;;;;;17.98;3.92;;;13.80;99.90;;;;;;4978185;28;20510;-77
2023/10/04 08:06:39;;;;;;;22.67;3.75;;;13.90;99.90;;;;;;4994342;28;20042;-79
2023/10/04 08:09:05;;;;;;;12.13;3.22;;;13.90;99.90;;;;;;4994227;28;20096;-77
2023/10/04 08:11:33;;;;;;;17.48;4.53;;;14.00;99.90;;;;;;4994424;28;20050;-78
2023/10/04 08:13:59;;;;;;;14.75;3.65;;;14.10;99.90;;;;;;4994517;28;20446;-80
2023/10/04 08:16:27;;;;;;;11.77;3.30;;;14.10;99.90;;;;;;4994125;28;20046;-78
2023/10/04 08:18:55;;;;;;;14.75;3.33;;;14.20;99.90;;;;;;4994042;28;20038;-76
2023/10/04 08:21:22;;;;;;;17.52;4.40;;;14.30;99.90;;;;;;4978382;28;20041;-76
2023/10/04 08:23:49;;;;;;;14.57;3.67;;;14.30;99.90;;;;;;4993180;28;20101;-77
2023/10/04 08:26:16;;;;;;;14.82;3.83;;;14.40;99.90;;;;;;4985470;28;20437;-78
2023/10/04 08:28:42;;;;;;;15.13;3.40;;;14.40;99.90;;;;;;4993426;28;20053;-80
2023/10/04 08:31:13;;;;;;;13.50;3.55;;;14.50;99.90;;;;;;4977674;28;20053;-80
2023/10/04 08:33:39;;;;;;;14.25;3.78;;;14.60;99.90;;;;;;4994112;28;20050;-77
2023/10/04 08:36:10;;;;;;;18.05;4.00;;;14.70;99.90;;;;;;4995073;28;20074;-76
2023/10/04 08:38:37;;;;;;;11.80;3.33;;;14.80;99.90;;;;;;4993822;28;20074;-80
2023/10/04 08:41:04;;;;;;;11.30;3.17;;;14.90;99.90;;;;;;4993342;28;20125;-78
2023/10/04 08:43:31;;;;;;;14.45;3.80;;;15.00;99.90;;;;;;4993797;28;20054;-77
2023/10/04 08:45:57;;;;;;;13.70;3.30;;;15.00;99.90;;;;;;4993516;28;20050;-80
2023/10/04 08:48:26;;;;;;;16.27;3.72;;;15.10;99.90;;;;;;4994683;28;20386;-80
2023/10/04 08:50:59;;;;;;;10.93;3.20;;;15.10;99.90;;;;;;4993411;28;20065;-77
2023/10/04 08:53:47;;;;;;;16.63;4.72;;;15.20;99.90;;;;;;4994754;28;20042;-79
2023/10/04 08:56:19;;;;;;;19.00;4.85;;;15.30;99.90;;;;;;4993179;28;20164;-77
2023/10/04 08:58:46;;;;;;;11.48;3.70;;;15.40;99.90;;;;;;4993306;28;20043;-79
2023/10/04 09:01:15;;;;;;;12.23;3.80;;;15.50;99.90;;;;;;4993212;28;20114;-77
2023/10/04 09:03:42;;;;;;;12.98;3.50;;;15.60;99.90;;;;;;4995065;28;20053;-75
2023/10/04 09:06:14;;;;;;;19.63;3.70;;;15.70;99.90;;;;;;4993410;28;20045;-77
2023/10/04 09:08:40;;;;;;;12.25;3.30;;;15.70;99.90;;;;;;4976956;28;20514;-76
2023/10/04 09:11:10;;;;;;;14.10;3.25;;;15.70;99.90;;;;;;4994336;28;20046;-77
2023/10/04 09:13:50;;;;;;;13.38;3.80;;;15.80;99.90;;;;;;4994647;28;20038;-77
2023/10/04 09:16:28;;;;;;;11.73;3.97;;;15.80;99.90;;;;;;4983406;28;20034;-77
2023/10/04 09:19:18;;;;;;;17.33;4.40;;;15.90;99.90;;;;;;4981645;28;20046;-78
2023/10/04 09:21:45;;;;;;;12.20;3.38;;;16.00;99.90;;;;;;4966284;28;20473;-77
2023/10/04 09:24:13;;;;;;;11.18;3.60;;;16.10;99.90;;;;;;4966770;28;20034;-76
2023/10/04 09:26:49;;;;;;;13.80;4.00;;;16.10;99.90;;;;;;4981257;28;20038;-77
2023/10/04 09:29:15;;;;;;;11.85;3.05;;;16.00;99.90;;;;;;4983256;28;20101;-78
2023/10/04 09:31:50;;;;;;;10.98;3.20;;;16.10;99.90;;;;;;4981527;28;20043;-77
2023/10/04 09:34:16;;;;;;;15.68;3.70;;;16.10;99.90;;;;;;4982624;28;20050;-78
2023/10/04 09:36:42;;;;;;;14.20;4.18;;;16.10;99.90;;;;;;4957105;28;20035;-79
2023/10/04 09:39:10;;;;;;;13.68;3.15;;;16.20;99.90;;;;;;4973182;28;20105;-79
2023/10/04 09:41:44;;;;;;;12.35;3.92;;;16.20;99.90;;;;;;4973141;28;20045;-76
2023/10/04 09:44:29;;;;;;;22.33;4.82;;;16.30;99.90;;;;;;4973302;28;20043;-77
2023/10/04 09:47:00;;;;;;;18.60;3.30;;;16.40;99.90;;;;;;4973498;28;20043;-78
2023/10/04 09:49:37;;;;;;;15.95;4.43;;;16.50;99.90;;;;;;4973093;28;20101;-78
2023/10/04 09:52:12;;;;;;;14.25;3.65;;;16.50;99.90;;;;;;4972566;28;20050;-78
2023/10/04 09:54:38;;;;;;;14.70;3.67;;;16.40;99.90;;;;;;4973331;28;20086;-77
2023/10/04 09:57:10;;;;;;;14.15;3.42;;;16.50;99.90;;;;;;4973059;28;20047;-77
2023/10/04 09:59:37;;;;;;;11.40;3.10;;;16.50;99.90;;;;;;4973342;28;20414;-77
2023/10/04 10:02:07;;;;;;;13.57;4.15;;;16.60;99.90;;;;;;4972768;28;20039;-77
2023/10/04 10:04:36;;;;;;;11.57;3.70;;;16.60;99.90;;;;;;4972915;28;20051;-78
2023/10/04 10:07:10;;;;;;;13.50;3.90;;;16.70;99.90;;;;;;4956908;28;20093;-76
2023/10/04 10:09:42;;;;;;;11.20;3.33;;;16.70;99.90;;;;;;4973219;28;20058;-77
2023/10/04 10:12:08;;;;;;;14.45;3.53;;;16.60;99.90;;;;;;4973068;28;20051;-79
2023/10/04 10:14:34;;;;;;;17.65;4.07;;;16.60;99.90;;;;;;4973149;28;20495;-76
2023/10/04 10:17:00;;;;;;;12.55;3.78;;;16.60;99.90;;;;;;4984690;28;20058;-75
2023/10/04 10:19:27;;;;;;;16.70;3.70;;;16.60;99.90;;;;;;4993512;28;20046;-76
2023/10/04 10:22:03;;;;;;;15.50;3.90;;;16.50;99.90;;;;;;4991373;28;20445;-79
2023/10/04 10:24:29;;;;;;;16.88;3.95;;;16.50;99.90;;;;;;4983306;28;20051;-79
2023/10/04 10:27:07;;;;;;;15.85;4.15;;;16.60;99.90;;;;;;4981403;28;20097;-77
2023/10/04 10:29:39;;;;;;;16.52;4.00;;;16.60;99.90;;;;;;4982504;28;20040;-76
2023/10/04 10:32:17;;;;;;;12.88;3.40;;;16.60;99.90;;;;;;4981756;28;20038;-78
2023/10/04 10:34:43;;;;;;;13.73;4.18;;;16.50;99.90;;;;;;4983009;28;20057;-79
2023/10/04 10:37:19;;;;;;;11.13;3.45;;;16.50;99.90;;;;;;4980873;28;20042;-76
2023/10/04 10:39:47;;;;;;;11.55;3.50;;;16.40;99.90;;;;;;4984138;28;20089;-76
2023/10/04 10:42:14;;;;;;;13.27;3.50;;;16.30;99.90;;;;;;4966827;28;20049;-77
2023/10/04 10:44:41;;;;;;;16.30;3.55;;;16.30;99.90;;;;;;4984383;28;20054;-76
2023/10/04 10:47:12;;;;;;;15.93;3.83;;;16.20;99.90;;;;;;4983571;28;20042;-76
2023/10/04 10:50:01;;;;;;;10.85;3.60;;;16.30;99.90;;;;;;4981810;28;20092;-77
2023/10/04 10:52:33;;;;;;;13.32;3.72;;;16.20;99.90;;;;;;4983278;28;20050;-76
2023/10/04 10:55:01;;;;;;;14.35;4.40;;;16.20;99.90;;;;;;4983189;28;20043;-77
2023/10/04 10:57:29;;;;;;;12.45;3.47;;;16.20;99.90;;;;;;4981235;28;20562;-76
2023/10/04 10:59:56;;;;;;;14.43;4.00;;;16.20;99.90;;;;;;4981658;28;20426;-77
2023/10/04 11:02:23;;;;;;;14.13;3.92;;;16.20;99.90;;;;;;4988371;28;20173;-77
2023/10/04 11:04:50;;;;;;;12.40;3.78;;;16.20;99.90;;;;;;4996992;28;20038;-76
2023/10/04 11:07:17;;;;;;;14.80;3.72;;;16.20;99.90;;;;;;4995299;28;20049;-77
2023/10/04 11:09:48;;;;;;;10.93;3.50;;;16.20;99.90;;;;;;4995579;28;20140;-76
2023/10/04 11:12:17;;;;;;;12.55;3.25;;;16.20;99.90;;;;;;4995191;28;20082;-77
2023/10/04 11:14:43;;;;;;;14.45;4.28;;;16.20;99.90;;;;;;4995176;28;20050;-77
2023/10/04 11:17:10;;;;;;;11.10;3.45;;;16.20;99.90;;;;;;4995078;28;20053;-77
2023/10/04 11:19:36;;;;;;;12.85;3.50;;;16.20;99.90;;;;;;4996618;28;20491;-78
2023/10/04 11:22:03;;;;;;;10.57;3.45;;;16.30;99.90;;;;;;4978782;28;20479;-76
2023/10/04 11:24:29;;;;;;;11.57;4.07;;;16.30;99.90;;;;;;4995595;28;20124;-76
2023/10/04 11:26:57;;;;;;;10.27;3.25;;;16.30;99.90;;;;;;4996276;28;20038;-76
2023/10/04 11:29:27;;;;;;;14.90;4.15;;;16.30;99.90;;;;;;4995106;28;20089;-75
2023/10/04 11:31:54;;;;;;;11.60;3.25;;;16.30;99.90;;;;;;4994873;28;20039;-76
2023/10/04 11:34:20;;;;;;;11.25;3.40;;;16.30;99.90;;;;;;4996065;28;20042;-76
2023/10/04 11:36:47;;;;;;;13.15;3.65;;;16.30;99.90;;;;;;4996578;28;20056;-77
2023/10/04 11:39:18;;;;;;;12.13;3.45;;;16.20;99.90;;;;;;4994754;28;20118;-77
2023/10/04 11:41:51;;;;;;;11.75;3.60;;;16.30;99.90;;;;;;4994670;28;20050;-76
2023/10/04 11:44:18;;;;;;;16.45;3.90;;;16.30;99.90;;;;;;4994629;28;20109;-76
2023/10/04 11:46:58;;;;;;;26.73;4.43;;;16.30;99.90;;;;;;4994591;28;20545;-76
2023/10/04 11:49:24;;;;;;;12.13;3.80;;;16.30;99.90;;;;;;4994547;28;20104;-76
2023/10/04 11:51:50;;;;;;;12.57;3.83;;;16.30;99.90;;;;;;4994747;28;20394;-78
2023/10/04 11:54:19;;;;;;;14.60;3.55;;;16.30;99.90;;;;;;4975864;28;20051;-77
2023/10/04 11:56:45;;;;;;;14.18;4.32;;;16.30;99.90;;;;;;4976427;28;20035;-79
2023/10/04 11:59:13;;;;;;;17.50;4.20;;;16.40;99.90;;;;;;4974945;28;20042;-78
2023/10/04 12:01:44;;;;;;;10.23;3.38;;;16.40;99.90;;;;;;4976143;28;20034;-76
2023/10/04 12:04:13;;;;;;;9.93;3.28;;;16.40;99.90;;;;;;4974861;28;20466;-76
2023/10/04 12:06:39;;;;;;;11.88;2.90;;;16.40;99.90;;;;;;4975161;28;20098;-78
2023/10/04 12:09:06;;;;;;;12.88;2.90;;;16.40;99.90;;;;;;4974484;28;20506;-76
2023/10/04 12:11:36;;;;;;;11.05;2.97;;;16.50;99.90;;;;;;4976120;28;20039;-76
2023/10/04 12:14:06;;;;;;;14.80;3.00;;;16.50;99.90;;;;;;4974192;28;20042;-76
2023/10/04 12:16:37;;;;;;;11.10;3.05;;;16.50;99.90;;;;;;4974786;28;20503;-77
2023/10/04 12:19:03;;;;;;;12.55;2.70;;;16.60;99.90;;;;;;4974664;28;20093;-73
2023/10/04 12:21:31;;;;;;;11.60;3.10;;;16.60;99.90;;;;;;4959085;28;20132;-78
2023/10/04 12:23:57;;;;;;;11.38;2.80;;;16.60;99.90;;;;;;4976088;28;20088;-76
2023/10/04 12:26:23;;;;;;;14.25;2.90;;;16.70;99.90;;;;;;4958701;28;20078;-76
2023/10/04 12:28:50;;;;;;;13.35;2.92;;;16.70;99.90;;;;;;4975016;28;20043;-76
2023/10/04 12:31:15;;;;;;;17.10;3.58;;;16.70;99.90;;;;;;4974342;28;20137;-77
2023/10/04 12:33:41;;;;;;;10.02;2.65;;;16.60;99.90;;;;;;4974544;28;20073;-76
2023/10/04 12:36:07;;;;;;;11.20;3.00;;;16.60;99.90;;;;;;4975521;28;20398;-77
2023/10/04 12:38:33;;;;;;;23.52;4.18;;;16.50;99.90;;;;;;4958472;28;20042;-76
2023/10/04 12:40:59;;;;;;;9.88;2.50;;;16.60;99.90;;;;;;4974153;28;20081;-76
2023/10/04 12:43:25;;;;;;;11.38;2.53;;;16.60;99.90;;;;;;4974965;28;20074;-77
2023/10/04 12:45:53;;;;;;;9.30;3.00;;;16.60;99.90;;;;;;4975713;28;20043;-76
2023/10/04 12:48:20;;;;;;;13.27;2.92;;;16.70;99.90;;;;;;4975316;28;20113;-75
2023/10/04 12:50:46;;;;;;;9.90;2.85;;;16.70;99.90;;;;;;4973883;28;20049;-75
2023/10/04 12:53:14;;;;;;;7.82;2.33;;;16.80;99.90;;;;;;4975635;28;20049;-77
2023/10/04 12:55:44;;;;;;;9.50;2.80;;;16.90;99.90;;;;;;4975379;28;20093;-76
2023/10/04 12:58:09;;;;;;;12.65;3.10;;;17.10;99.90;;;;;;4973898;28;20130;-77
2023/10/04 13:00:35;;;;;;;8.93;2.58;;;17.10;99.90;;;;;;4973596;28;20122;-77
2023/10/04 13:03:01;;;;;;;13.20;3.00;;;17.30;99.90;;;;;;4974233;28;20042;-77
2023/10/04 13:05:27;;;;;;;12.77;3.33;;;17.20;99.90;;;;;;4973905;28;20050;-77
2023/10/04 13:07:54;;;;;;;11.15;2.70;;;17.20;99.90;;;;;;4973639;28;20047;-78
2023/10/04 13:10:22;;;;;;;8.43;2.92;;;17.20;99.90;;;;;;4974160;28;20050;-76
2023/10/04 13:12:49;;;;;;;12.90;2.92;;;17.10;99.90;;;;;;4973789;28;20051;-78
2023/10/04 13:15:16;;;;;;;8.35;2.65;;;17.10;99.90;;;;;;4974139;28;20051;-76
2023/10/04 13:17:43;;;;;;;8.23;2.95;;;17.00;99.90;;;;;;4974872;28;20364;-78
2023/10/04 13:20:10;;;;;;;13.00;2.90;;;16.90;99.90;;;;;;4973763;28;20043;-75
2023/10/04 13:22:37;;;;;;;11.90;3.17;;;16.80;99.90;;;;;;4973554;28;20046;-76
2023/10/04 13:25:05;;;;;;;12.95;2.78;;;16.80;99.90;;;;;;4973273;28;20043;-76
2023/10/04 13:27:32;;;;;;;10.98;2.63;;;16.80;99.90;;;;;;4973779;28;20062;-75
2023/10/04 13:29:58;;;;;;;11.57;2.95;;;16.80;99.90;;;;;;4973671;28;20047;-78
2023/10/04 13:32:24;;;;;;;11.95;2.90;;;16.80;99.90;;;;;;4957412;28;20382;-77
2023/10/04 13:34:49;;;;;;;10.73;3.00;;;16.70;99.90;;;;;;4973452;28;20043;-76
2023/10/04 13:37:15;;;;;;;12.27;3.45;;;16.70;99.90;;;;;;4973826;28;20090;-77
2023/10/04 13:39:41;;;;;;;11.80;2.67;;;16.80;99.90;;;;;;4974010;28;20538;-75
2023/10/04 13:42:07;;;;;;;10.02;2.67;;;16.70;99.90;;;;;;4974273;28;20549;-77
2023/10/04 13:44:33;;;;;;;9.32;2.80;;;16.70;99.90;;;;;;4957006;28;20053;-78
2023/10/04 13:47:00;;;;;;;11.80;2.85;;;16.70;99.90;;;;;;4973457;28;20122;-75
2023/10/04 13:49:26;;;;;;;8.98;2.50;;;16.70;99.90;;;;;;4973550;28;20046;-77
2023/10/04 13:51:54;;;;;;;13.85;3.15;;;16.60;99.90;;;;;;4973012;28;20122;-75
2023/10/04 13:54:21;;;;;;;11.13;3.70;;;16.70;99.90;;;;;;4972960;28;20051;-75
2023/10/04 13:56:47;;;;;;;12.35;2.70;;;16.60;99.90;;;;;;4973308;28;20109;-76
2023/10/04 13:59:13;;;;;;;9.75;2.80;;;16.60;99.90;;;;;;4973683;28;20100;-75
2023/10/04 14:01:41;;;;;;;10.50;2.70;;;16.60;99.90;;;;;;4974292;28;20551;-76
2023/10/04 14:04:08;;;;;;;10.25;2.65;;;16.60;99.90;;;;;;4972868;28;20066;-76
2023/10/04 14:06:35;;;;;;;7.57;2.53;;;16.60;99.90;;;;;;4972827;28;20057;-76
2023/10/04 14:09:10;;;;;;;12.00;3.45;;;16.60;99.90;;;;;;4973082;28;20402;-76
2023/10/04 14:11:37;;;;;;;12.63;3.22;;;16.60;99.90;;;;;;4974027;28;20043;-75
2023/10/04 14:14:07;;;;;;;10.75;2.45;;;16.60;99.90;;;;;;4974087;28;20039;-76
2023/10/04 14:16:33;;;;;;;8.73;2.40;;;16.60;99.90;;;;;;4972967;28;20051;-76
2023/10/04 14:18:59;;;;;;;11.55;2.40;;;16.60;99.90;;;;;;4973329;28;20082;-76
2023/10/04 14:21:25;;;;;;;8.40;2.35;;;16.60;99.90;;;;;;4974122;28;20070;-77
2023/10/04 14:23:50;;;;;;;9.60;2.40;;;16.60;99.90;;;;;;4972739;28;20047;-76
2023/10/04 14:26:17;;;;;;;8.38;2.38;;;16.60;99.90;;;;;;4973007;28;20076;-76
2023/10/04 14:28:44;;;;;;;8.45;1.83;;;16.60;99.90;;;;;;4973282;28;20055;-76
2023/10/04 14:31:11;;;;;;;7.47;1.92;;;16.60;99.90;;;;;;4973986;28;20062;-76
2023/10/04 14:33:39;;;;;;;11.35;2.47;;;16.60;99.90;;;;;;4973147;28;20046;-75
2023/10/04 14:36:05;;;;;;;9.48;2.65;;;16.60;99.90;;;;;;4972444;28;20038;-76
2023/10/04 14:38:31;;;;;;;7.38;1.83;;;16.50;99.90;;;;;;4975341;28;20387;-76
2023/10/04 14:40:58;;;;;;;11.10;2.20;;;16.60;99.90;;;;;;4992514;28;20043;-78
2023/10/04 14:43:23;;;;;;;9.60;1.50;;;16.60;99.90;;;;;;4976554;28;20471;-77
2023/10/04 14:45:51;;;;;;;12.13;2.38;;;16.60;99.90;;;;;;4977915;28;20041;-76
2023/10/04 14:48:17;;;;;;;8.73;2.28;;;16.60;99.90;;;;;;4976205;28;20054;-75
2023/10/04 14:50:43;;;;;;;6.97;1.75;;;16.60;99.90;;;;;;4976039;28;20144;-76
2023/10/04 14:53:09;;;;;;;6.20;1.50;;;16.50;99.90;;;;;;4977527;28;20039;-76
2023/10/04 14:55:35;;;;;;;10.65;1.88;;;16.50;99.90;;;;;;4976118;28;20043;-76
2023/10/04 14:58:00;;;;;;;9.82;2.83;;;16.50;99.90;;;;;;4975929;28;20086;-75
2023/10/04 15:00:27;;;;;;;9.90;3.28;;;16.50;99.90;;;;;;4975682;28;20065;-76
2023/10/04 15:02:54;;;;;;;7.97;1.65;;;16.40;99.90;;;;;;4977467;28;20100;-76
2023/10/04 15:05:20;;;;;;;4.57;1.50;;;16.40;99.90;;;;;;4975787;28;20039;-77
2023/10/04 15:07:47;;;;;;;11.93;1.80;;;16.40;99.90;;;;;;4976052;28;20061;-76
2023/10/04 15:10:21;;;;;;;6.75;1.90;;;16.40;99.90;;;;;;4975814;28;20054;-76
2023/10/04 15:12:47;;;;;;;3.08;1.30;;;16.30;99.90;;;;;;4977054;28;20050;-77
2023/10/04 15:15:13;;;;;;;6.88;1.38;;;16.30;99.90;;;;;;4975778;28;20057;-74
2023/10/04 15:17:39;;;;;;;4.90;1.50;;;16.30;99.90;;;;;;4976632;28;20125;-76
2023/10/04 15:20:08;;;;;;;6.45;1.50;;;16.30;99.90;;;;;;4977136;28;20109;-75
2023/10/04 15:22:44;;;;;;;8.75;1.40;;;16.30;99.90;;;;;;4975541;28;20046;-76
2023/10/04 15:25:14;;;;;;;9.02;2.10;;;16.30;99.90;;;;;;4975415;28;20491;-77
2023/10/04 15:27:53;;;;;;;8.80;1.50;;;16.30;99.90;;;;;;4975426;28;20046;-76
2023/10/04 15:30:22;;;;;;;7.90;1.85;;;16.30;99.90;;;;;;4975624;28;20363;-75
2023/10/04 15:32:52;;;;;;;7.72;1.40;;;16.30;99.90;;;;;;4975337;28;20042;-76
2023/10/04 15:35:24;;;;;;;4.93;1.48;;;16.30;99.90;;;;;;4975205;28;20057;-76
2023/10/04 15:37:53;;;;;;;7.75;1.75;;;16.30;99.90;;;;;;4975311;28;20047;-76
2023/10/04 15:40:24;;;;;;;7.07;1.80;;;16.30;99.90;;;;;;4975085;28;20042;-76
2023/10/04 15:42:50;;;;;;;6.25;1.92;;;16.20;99.90;;;;;;4975440;28;20099;-76
2023/10/04 15:45:20;;;;;;;10.57;1.80;;;16.20;99.90;;;;;;4976628;28;20140;-76